CYYY

Mont Joli Airport

Mont-Joli, Quebec, Canada
METAR CYYY 161800Z 16019KT 15SM -SN BKN035 OVC070 M05/M08 A2951 RMK SC6AC2 /S03/ PRESFR SLP000
Observed Flight Rules
Jan-16 @ 18:00 UTC (48 minutes ago) Visual Flight Rules
Wind Visibility Clouds Conditions
160° at 19 knots 15 miles
  • Broken at 3,500' AGL
  • Overcast at 7,000' AGL
  • Light Snow
Temperatures Readings
Current -5°C / 23°F
Dewpoint -8°C / 18°F
Humidity 80%
Altimeter 29.51" Hg
Pressure 1000 hPa
Elevation 52
METAR CYYY 161800Z 16019KT 15SM -SN BKN035 OVC070 M05/M08 A2951 RMK SC6AC2 /S03/ PRESFR SLP000
Observed Flight Rules
Jan-16 @ 18:00 UTC
(48 minutes ago)
VFR
Wind Visibility
160° at 19 knots 15 miles
Clouds
  • Broken at 3,500' AGL
  • Overcast at 7,000' AGL
Conditions
  • Light Snow
Temperature Dewpoint
-5°C / 23°F -8°C / 18°F
Humidity Altimeter Pressure
80% 29.51" Hg 1000 hPa